createdAt,value
2023-05-08T00:03:24.497Z,82.61
2023-05-08T00:08:36.918Z,79.54
2023-05-08T00:13:41.389Z,79.93
2023-05-08T00:18:54.227Z,79.07
2023-05-08T00:24:02.563Z,78.41
2023-05-08T00:29:16.421Z,79.46
2023-05-08T00:34:19.100Z,81.51
2023-05-08T00:39:36.193Z,82.86
2023-05-08T00:44:40.218Z,80.50
2023-05-08T00:49:43.100Z,81.07
2023-05-08T00:54:57.926Z,78.62
2023-05-08T01:00:14.131Z,80.04
2023-05-08T01:05:30.120Z,77.67
2023-05-08T01:11:18.507Z,76.46
2023-05-08T01:16:54.268Z,78.60
2023-05-08T01:22:40.912Z,77.70
2023-05-08T01:28:23.682Z,79.44
2023-05-08T01:33:30.833Z,79.26
2023-05-08T01:38:47.827Z,78.04
2023-05-08T01:44:27.277Z,79.12
2023-05-08T01:49:46.831Z,79.12
2023-05-08T01:55:27.793Z,77.98
2023-05-08T02:00:43.946Z,77.71
2023-05-08T02:05:48.904Z,75.18
2023-05-08T02:10:55.169Z,74.75
2023-05-08T02:15:59.520Z,73.85
2023-05-08T02:21:09.662Z,75.07
2023-05-08T02:26:17.740Z,75.66
2023-05-08T02:31:25.228Z,73.60
2023-05-08T02:36:30.526Z,73.07
2023-05-08T02:41:40.173Z,73.24
2023-05-08T02:47:08.208Z,74.38
2023-05-08T02:52:17.594Z,73.86
2023-05-08T02:57:29.385Z,72.89
2023-05-08T03:02:40.351Z,72.75
2023-05-08T03:07:45.477Z,73.60
2023-05-08T03:12:54.454Z,75.13
2023-05-08T03:18:14.994Z,73.84
2023-05-08T03:23:22.087Z,73.33
2023-05-08T03:28:32.665Z,73.25
2023-05-08T03:33:49.192Z,73.74
2023-05-08T03:38:54.693Z,74.39
2023-05-08T03:44:05.746Z,73.98
2023-05-08T03:49:12.289Z,72.12
2023-05-08T03:54:15.488Z,71.99
2023-05-08T03:59:38.523Z,72.03
2023-05-08T04:04:44.495Z,71.44
2023-05-08T04:09:55.977Z,71.33
2023-05-08T04:15:17.886Z,71.52
2023-05-08T04:20:27.475Z,70.94
2023-05-08T04:25:43.093Z,70.78
2023-05-08T04:30:55.585Z,71.54
2023-05-08T04:36:07.193Z,71.58
2023-05-08T04:41:15.540Z,70.77
2023-05-08T04:46:24.537Z,71.51
2023-05-08T04:51:33.078Z,69.45
2023-05-08T04:56:36.190Z,69.46
2023-05-08T05:01:38.506Z,69.06
2023-05-08T05:07:00.326Z,66.77
2023-05-08T05:12:17.684Z,65.69
2023-05-08T05:17:24.352Z,67.79
2023-05-08T05:22:35.302Z,67.37
2023-05-08T05:27:43.047Z,65.85
2023-05-08T05:32:45.874Z,66.48
2023-05-08T05:37:49.420Z,65.10
2023-05-08T05:42:53.587Z,63.89
2023-05-08T05:47:56.431Z,65.86
2023-05-08T05:52:59.806Z,63.48
2023-05-08T05:58:02.550Z,64.42
2023-05-08T06:03:05.111Z,64.47
2023-05-08T06:08:09.520Z,63.79
2023-05-08T06:13:11.887Z,63.95
2023-05-08T06:18:19.875Z,63.22
2023-05-08T06:23:29.474Z,62.88
2023-05-08T06:28:42.312Z,63.17
2023-05-08T06:33:44.659Z,62.44
2023-05-08T06:38:47.304Z,61.39
2023-05-08T06:43:49.642Z,63.46
2023-05-08T06:48:51.811Z,62.71
2023-05-08T06:53:56.723Z,61.78
2023-05-08T06:59:08.902Z,61.33
2023-05-08T07:04:22.657Z,61.17
2023-05-08T07:09:39.416Z,61.59
2023-05-08T07:14:42.336Z,62.81
2023-05-08T07:19:51.341Z,62.24
2023-05-08T07:24:56.670Z,61.34
2023-05-08T07:30:04.373Z,62.46
2023-05-08T07:35:11.594Z,63.74
2023-05-08T07:40:14.352Z,62.21
2023-05-08T07:45:19.153Z,57.86
2023-05-08T07:50:26.601Z,57.66
2023-05-08T07:55:28.819Z,58.03
2023-05-08T08:00:34.023Z,58.51
2023-05-08T08:05:47.702Z,57.81
2023-05-08T08:10:50.717Z,57.18
2023-05-08T08:16:00.343Z,57.68
2023-05-08T08:21:06.735Z,56.53
2023-05-08T08:26:11.657Z,55.87
2023-05-08T08:31:16.730Z,56.24
2023-05-08T08:36:26.264Z,56.69
2023-05-08T08:41:33.837Z,58.13
2023-05-08T08:46:47.305Z,56.07
2023-05-08T08:52:07.070Z,56.53
2023-05-08T08:57:09.531Z,55.41
2023-05-08T09:02:17.671Z,54.03
2023-05-08T09:07:26.221Z,53.30
2023-05-08T09:12:31.051Z,52.26
2023-05-08T09:17:38.659Z,53.87
2023-05-08T09:23:06.967Z,53.51
2023-05-08T09:28:20.338Z,52.54
2023-05-08T09:33:39.632Z,52.20
2023-05-08T09:38:44.554Z,54.15
2023-05-08T09:44:03.081Z,53.00
2023-05-08T09:49:06.417Z,52.58
2023-05-08T09:54:18.082Z,52.11
2023-05-08T09:59:34.410Z,51.49
2023-05-08T10:04:42.884Z,51.34
2023-05-08T10:10:05.919Z,50.82
2023-05-08T10:15:11.150Z,50.66
2023-05-08T10:20:27.641Z,50.90
2023-05-08T10:25:37.162Z,51.04
2023-05-08T10:30:50.896Z,50.41
2023-05-08T10:36:01.395Z,50.72
2023-05-08T10:41:14.229Z,52.12
2023-05-08T10:46:35.280Z,49.58
2023-05-08T10:52:30.769Z,49.07
2023-05-08T10:57:33.575Z,49.69
2023-05-08T11:02:38.381Z,50.46
2023-05-08T11:08:18.073Z,51.39
2023-05-08T11:13:38.131Z,51.97
2023-05-08T11:19:17.153Z,52.33
2023-05-08T11:24:39.628Z,52.42
2023-05-08T11:29:45.053Z,49.77
2023-05-08T11:34:52.190Z,48.17
2023-05-08T11:39:54.573Z,47.25
2023-05-08T11:45:10.070Z,47.28
2023-05-08T11:50:18.002Z,47.53
2023-05-08T11:55:29.570Z,45.72
2023-05-08T12:00:41.186Z,46.13
2023-05-08T12:05:50.032Z,45.06
2023-05-08T12:10:54.331Z,46.95
2023-05-08T12:15:59.911Z,46.83
2023-05-08T12:21:21.398Z,46.26
2023-05-08T12:26:38.723Z,45.25
2023-05-08T12:31:47.215Z,45.74
2023-05-08T12:36:58.167Z,45.53
2023-05-08T12:42:01.293Z,44.55
2023-05-08T12:47:06.326Z,44.86
2023-05-08T12:52:12.808Z,45.34
2023-05-08T12:57:22.867Z,45.37
2023-05-08T13:02:27.582Z,45.45
2023-05-08T13:07:36.853Z,45.21
2023-05-08T13:12:39.103Z,46.05
2023-05-08T13:17:41.680Z,46.65
2023-05-08T13:22:44.966Z,48.31
2023-05-08T13:27:47.239Z,48.27
2023-05-08T13:32:53.777Z,47.51
2023-05-08T13:37:57.677Z,47.89
2023-05-08T13:43:03.160Z,49.14
2023-05-08T13:48:06.224Z,48.60
2023-05-08T13:53:11.464Z,48.26
2023-05-08T13:58:21.355Z,48.55
2023-05-08T14:03:24.299Z,47.80
2023-05-08T14:08:34.978Z,47.31
2023-05-08T14:13:43.285Z,48.06
2023-05-08T14:18:51.837Z,47.38
2023-05-08T14:24:01.687Z,46.14
2023-05-08T14:29:05.443Z,46.01
2023-05-08T14:34:11.369Z,45.99
2023-05-08T14:39:18.961Z,44.70
2023-05-08T14:44:24.696Z,45.67
2023-05-08T14:54:53.900Z,45.64
2023-05-08T15:00:28.691Z,45.96
2023-05-08T15:06:07.727Z,45.97
2023-05-08T15:11:34.528Z,45.84
2023-05-08T15:16:46.774Z,45.35
2023-05-08T15:21:51.529Z,44.90
2023-05-08T15:26:57.070Z,44.89
2023-05-08T15:32:09.568Z,44.92
2023-05-08T15:37:12.208Z,44.73
2023-05-08T15:42:21.873Z,44.72
2023-05-08T15:47:28.158Z,44.14
2023-05-08T15:52:33.773Z,43.58
2023-05-08T15:57:36.939Z,44.21
2023-05-08T16:02:39.184Z,44.50
2023-05-08T16:07:54.464Z,44.76
2023-05-08T16:12:59.170Z,45.57
2023-05-08T16:18:08.216Z,45.66
2023-05-08T16:23:10.724Z,45.45
2023-05-08T16:28:15.989Z,45.80
2023-05-08T16:33:23.239Z,45.81
2023-05-08T16:38:33.750Z,46.45
2023-05-08T16:43:35.818Z,46.93
2023-05-08T16:48:38.413Z,47.13
2023-05-08T16:53:41.048Z,48.35
2023-05-08T16:58:43.750Z,48.60
2023-05-08T17:03:46.160Z,48.76
2023-05-08T17:08:49.149Z,49.74
2023-05-08T17:13:51.492Z,50.59
2023-05-08T17:18:54.455Z,50.92
2023-05-08T17:23:56.668Z,51.45
2023-05-08T17:28:59.763Z,51.74
2023-05-08T17:34:02.170Z,52.07
2023-05-08T17:39:10.076Z,52.37
2023-05-08T17:44:12.213Z,52.78
2023-05-08T17:49:15.875Z,52.97
2023-05-08T17:54:19.606Z,53.55
2023-05-08T17:59:21.863Z,54.15
2023-05-08T18:04:24.102Z,54.85
2023-05-08T18:09:26.140Z,55.34
2023-05-08T18:14:32.089Z,56.47
2023-05-08T18:19:36.433Z,56.49
2023-05-08T18:24:41.061Z,57.09
2023-05-08T18:29:43.538Z,57.72
2023-05-08T18:34:46.320Z,58.69
2023-05-08T18:39:51.676Z,58.99
2023-05-08T18:44:57.111Z,59.45
2023-05-08T18:50:00.698Z,59.65
2023-05-08T18:55:13.185Z,60.79
2023-05-08T19:00:19.894Z,60.68
2023-05-08T19:05:22.696Z,61.40
2023-05-08T19:10:25.658Z,61.47
2023-05-08T19:15:28.532Z,62.10
2023-05-08T19:20:32.094Z,63.52
2023-05-08T19:25:34.379Z,64.87
2023-05-08T19:30:36.597Z,64.07
2023-05-08T19:35:39.548Z,64.73
2023-05-08T19:40:55.721Z,65.15
2023-05-08T19:46:00.245Z,65.68
2023-05-08T19:51:10.112Z,65.77
2023-05-08T19:56:13.177Z,66.37
2023-05-08T20:01:17.515Z,66.66
2023-05-08T20:06:19.757Z,66.43
2023-05-08T20:11:22.804Z,65.48
2023-05-08T20:16:30.902Z,66.07
2023-05-08T20:21:33.997Z,67.62
2023-05-08T20:26:38.772Z,68.10
2023-05-08T20:31:44.337Z,68.43
2023-05-08T20:36:49.313Z,68.83
2023-05-08T20:41:51.856Z,69.06
2023-05-08T20:46:54.339Z,69.35
2023-05-08T20:52:00.025Z,69.57
2023-05-08T20:57:04.804Z,70.02
2023-05-08T21:02:11.169Z,70.30
2023-05-08T21:07:21.129Z,70.51
2023-05-08T21:12:32.418Z,70.79
2023-05-08T21:17:36.231Z,71.05
2023-05-08T21:22:47.613Z,71.40
2023-05-08T21:28:04.852Z,71.70
2023-05-08T21:33:10.168Z,71.97
2023-05-08T21:38:48.254Z,69.76
2023-05-08T21:44:00.674Z,68.61
2023-05-08T21:49:06.418Z,69.77
2023-05-08T21:54:09.555Z,70.97
2023-05-08T21:59:14.660Z,71.56
2023-05-08T22:04:29.341Z,71.56
2023-05-08T22:09:36.947Z,71.20
2023-05-08T22:14:45.367Z,69.06
2023-05-08T22:19:52.764Z,70.71
2023-05-08T22:25:17.137Z,69.85
2023-05-08T22:30:28.684Z,70.71
2023-05-08T22:35:37.187Z,70.21
2023-05-08T22:40:49.866Z,69.90
2023-05-08T22:45:52.678Z,69.34
2023-05-08T22:51:00.521Z,71.06
2023-05-08T22:56:06.089Z,71.13
2023-05-08T23:01:08.731Z,71.55
2023-05-08T23:06:16.165Z,69.45
2023-05-08T23:11:22.445Z,70.19
2023-05-08T23:16:40.331Z,69.33
2023-05-08T23:21:42.472Z,70.64
2023-05-08T23:26:52.506Z,71.24
2023-05-08T23:32:02.161Z,71.59
2023-05-08T23:37:07.406Z,70.32
2023-05-08T23:42:10.084Z,70.73
2023-05-08T23:47:27.290Z,73.17
2023-05-08T23:52:29.734Z,73.98
2023-05-08T23:57:42.575Z,72.92
